createdAt,value
2018-07-23T00:01:59.478Z,6.62
2018-07-23T00:04:27.711Z,7.05
2018-07-23T00:06:56.027Z,6.03
2018-07-23T00:09:24.263Z,6.95
2018-07-23T00:11:52.505Z,7.20
2018-07-23T00:14:20.734Z,7.22
2018-07-23T00:16:49.005Z,7.45
2018-07-23T00:19:17.335Z,7.58
2018-07-23T00:21:45.666Z,7.87
2018-07-23T00:24:13.939Z,7.97
2018-07-23T00:26:42.223Z,8.23
2018-07-23T00:29:10.499Z,7.60
2018-07-23T00:31:38.785Z,8.83
2018-07-23T00:34:07.043Z,8.65
2018-07-23T00:36:35.345Z,8.55
2018-07-23T00:39:04.566Z,8.23
2018-07-23T00:41:32.839Z,8.50
2018-07-23T00:44:01.180Z,7.70
2018-07-23T00:46:29.415Z,6.83
2018-07-23T00:48:57.675Z,7.15
2018-07-23T00:51:25.950Z,6.78
2018-07-23T00:53:54.236Z,7.03
2018-07-23T00:56:22.502Z,6.72
2018-07-23T00:58:50.964Z,7.03
2018-07-23T01:01:19.293Z,6.92
2018-07-23T01:03:47.320Z,6.97
2018-07-23T01:06:15.620Z,7.30
2018-07-23T01:08:43.818Z,6.58
2018-07-23T01:11:12.063Z,7.17
2018-07-23T01:13:40.374Z,6.40
2018-07-23T01:16:08.645Z,7.50
2018-07-23T01:18:36.849Z,6.72
2018-07-23T01:21:05.082Z,6.53
2018-07-23T01:23:33.319Z,6.03
2018-07-23T01:26:01.665Z,7.05
2018-07-23T01:28:29.970Z,7.27
2018-07-23T01:30:58.260Z,7.10
2018-07-23T01:33:26.565Z,5.78
2018-07-23T01:35:54.811Z,6.20
2018-07-23T01:38:23.109Z,6.10
2018-07-23T01:40:51.436Z,5.87
2018-07-23T01:43:19.678Z,5.87
2018-07-23T01:45:47.695Z,6.40
2018-07-23T01:48:16.575Z,5.40
2018-07-23T01:50:44.827Z,5.97
2018-07-23T01:53:12.873Z,6.67
2018-07-23T01:55:41.155Z,6.00
2018-07-23T01:58:09.363Z,5.67
2018-07-23T02:00:37.600Z,6.07
2018-07-23T02:03:05.855Z,6.73
2018-07-23T02:05:34.090Z,6.10
2018-07-23T02:08:02.363Z,6.63
2018-07-23T02:10:30.691Z,6.10
2018-07-23T02:12:58.990Z,6.20
2018-07-23T02:15:27.231Z,6.43
2018-07-23T02:17:55.497Z,5.90
2018-07-23T02:20:23.779Z,6.33
2018-07-23T02:22:52.013Z,6.03
2018-07-23T02:25:20.276Z,7.00
2018-07-23T02:27:48.537Z,5.60
2018-07-23T02:30:16.825Z,5.80
2018-07-23T02:32:45.091Z,5.93
2018-07-23T02:35:13.338Z,5.67
2018-07-23T02:37:41.590Z,5.87
2018-07-23T02:40:09.838Z,6.17
2018-07-23T02:42:38.064Z,5.63
2018-07-23T02:45:06.271Z,5.43
2018-07-23T02:47:34.535Z,5.60
2018-07-23T02:50:02.812Z,5.97
2018-07-23T02:52:31.181Z,6.23
2018-07-23T02:54:59.415Z,5.47
2018-07-23T02:57:27.674Z,5.40
2018-07-23T02:59:56.183Z,5.70
2018-07-23T03:02:24.451Z,6.13
2018-07-23T03:04:52.731Z,6.30
2018-07-23T03:07:21.024Z,6.33
2018-07-23T03:09:49.245Z,6.70
2018-07-23T03:12:24.147Z,7.03
2018-07-23T03:14:52.441Z,6.33
2018-07-23T03:17:20.729Z,7.10
2018-07-23T03:19:48.760Z,6.73
2018-07-23T03:22:17.037Z,7.10
2018-07-23T03:24:45.507Z,6.77
2018-07-23T03:27:13.776Z,7.37
2018-07-23T03:29:42.083Z,7.33
2018-07-23T03:32:10.379Z,8.40
2018-07-23T03:34:38.617Z,7.83
2018-07-23T03:37:06.914Z,7.87
2018-07-23T03:39:35.199Z,8.97
2018-07-23T03:42:03.495Z,9.20
2018-07-23T03:44:31.848Z,8.93
2018-07-23T03:47:00.158Z,8.70
2018-07-23T03:49:28.700Z,9.10
2018-07-23T03:51:57.070Z,9.27
2018-07-23T03:54:25.390Z,10.20
2018-07-23T03:56:53.482Z,9.03
2018-07-23T03:59:21.768Z,8.70
2018-07-23T04:01:50.080Z,9.67
2018-07-23T04:04:18.448Z,9.37
2018-07-23T04:06:48.235Z,9.43
2018-07-23T04:09:16.932Z,9.97
2018-07-23T04:11:45.919Z,10.93
2018-07-23T04:14:14.607Z,10.03
2018-07-23T04:16:42.881Z,9.87
2018-07-23T04:19:11.155Z,10.17
2018-07-23T04:21:39.461Z,10.20
2018-07-23T04:24:07.796Z,10.07
2018-07-23T04:26:36.062Z,10.20
2018-07-23T04:29:04.389Z,9.90
2018-07-23T04:31:32.687Z,10.60
2018-07-23T04:34:00.992Z,10.73
2018-07-23T04:36:29.294Z,9.60
2018-07-23T04:38:57.538Z,10.67
2018-07-23T04:41:25.810Z,9.87
2018-07-23T04:43:53.815Z,10.00
2018-07-23T04:46:22.213Z,9.53
2018-07-23T04:48:50.501Z,10.47
2018-07-23T04:51:18.749Z,9.60
2018-07-23T04:53:47.064Z,10.57
2018-07-23T04:56:15.337Z,10.17
2018-07-23T04:58:43.603Z,10.33
2018-07-23T05:01:11.870Z,10.70
2018-07-23T05:03:40.120Z,10.20
2018-07-23T05:06:08.415Z,10.80
2018-07-23T05:08:36.714Z,11.37
2018-07-23T05:11:05.162Z,11.07
2018-07-23T05:13:33.389Z,10.93
2018-07-23T05:16:02.172Z,11.20
2018-07-23T05:18:30.509Z,10.50
2018-07-23T05:20:58.743Z,11.53
2018-07-23T05:23:27.024Z,10.43
2018-07-23T05:25:55.303Z,11.80
2018-07-23T05:28:23.528Z,11.43
2018-07-23T05:30:51.834Z,11.47
2018-07-23T05:33:19.875Z,11.23
2018-07-23T05:35:48.110Z,11.50
2018-07-23T05:38:16.518Z,11.47
2018-07-23T05:40:44.802Z,12.07
2018-07-23T05:43:13.084Z,11.43
2018-07-23T05:45:41.333Z,12.10
2018-07-23T05:48:09.699Z,12.10
2018-07-23T05:50:38.002Z,11.33
2018-07-23T05:53:06.307Z,13.27
2018-07-23T05:55:34.596Z,12.10
2018-07-23T05:58:02.828Z,12.10
2018-07-23T06:00:31.067Z,12.43
2018-07-23T06:02:59.287Z,12.67
2018-07-23T06:05:27.570Z,13.53
2018-07-23T06:07:55.840Z,12.93
2018-07-23T06:10:24.110Z,13.50
2018-07-23T06:12:53.017Z,12.43
2018-07-23T06:15:22.012Z,13.53
2018-07-23T06:17:50.289Z,12.80
2018-07-23T06:20:18.514Z,12.93
2018-07-23T06:22:46.747Z,13.40
2018-07-23T06:25:14.771Z,13.27
2018-07-23T06:27:43.102Z,13.67
2018-07-23T06:30:11.880Z,12.98
2018-07-23T06:32:40.108Z,13.43
2018-07-23T06:35:08.355Z,14.25
2018-07-23T06:37:36.716Z,13.08
2018-07-23T06:40:06.607Z,13.45
2018-07-23T06:42:34.864Z,14.58
2018-07-23T06:45:03.123Z,13.43
2018-07-23T06:47:31.376Z,13.68
2018-07-23T06:49:59.654Z,14.90
2018-07-23T06:52:27.996Z,13.00
2018-07-23T06:54:56.253Z,13.88
2018-07-23T06:57:24.571Z,14.47
2018-07-23T06:59:52.839Z,15.08
2018-07-23T07:02:21.139Z,13.22
2018-07-23T07:04:49.409Z,14.53
2018-07-23T07:07:17.860Z,13.28
2018-07-23T07:09:46.197Z,13.55
2018-07-23T07:12:14.476Z,13.18
2018-07-23T07:14:42.756Z,13.68
2018-07-23T07:17:11.099Z,13.72
2018-07-23T07:19:39.082Z,13.55
2018-07-23T07:22:07.520Z,12.47
2018-07-23T07:24:35.829Z,13.80
2018-07-23T07:27:04.064Z,13.72
2018-07-23T07:29:32.511Z,14.30
2018-07-23T07:32:00.881Z,13.03
2018-07-23T07:34:29.136Z,13.68
2018-07-23T07:36:57.600Z,12.60
2018-07-23T07:39:25.570Z,12.15
2018-07-23T07:41:53.829Z,12.18
2018-07-23T07:44:22.174Z,13.85
2018-07-23T07:46:50.626Z,13.50
2018-07-23T07:49:18.899Z,13.05
2018-07-23T07:51:47.130Z,13.85
2018-07-23T07:54:15.415Z,13.55
2018-07-23T07:56:43.685Z,13.75
2018-07-23T07:59:12.128Z,12.85
2018-07-23T08:01:41.256Z,14.78
2018-07-23T08:04:09.583Z,13.95
2018-07-23T08:06:37.912Z,13.98
2018-07-23T08:09:07.922Z,14.68
2018-07-23T08:11:36.484Z,13.38
2018-07-23T08:14:04.842Z,12.23
2018-07-23T08:16:33.101Z,14.07
2018-07-23T08:19:01.368Z,11.93
2018-07-23T08:21:29.678Z,11.85
2018-07-23T08:23:57.972Z,12.18
2018-07-23T08:26:26.232Z,11.40
2018-07-23T08:28:54.502Z,11.50
2018-07-23T08:31:22.764Z,11.35
2018-07-23T08:33:51.059Z,11.48
2018-07-23T08:36:19.353Z,11.68
2018-07-23T08:38:47.654Z,11.40
2018-07-23T08:41:16.619Z,11.55
2018-07-23T08:43:44.906Z,11.00
2018-07-23T08:46:13.301Z,11.20
2018-07-23T08:48:41.640Z,11.43
2018-07-23T08:51:10.064Z,12.43
2018-07-23T08:53:38.280Z,12.05
2018-07-23T08:56:06.581Z,11.68
2018-07-23T08:58:34.824Z,10.58
2018-07-23T09:01:03.116Z,9.63
2018-07-23T09:03:31.357Z,10.85
2018-07-23T09:05:59.604Z,9.63
2018-07-23T09:08:27.931Z,11.08
2018-07-23T09:10:56.151Z,10.03
2018-07-23T09:13:24.725Z,9.03
2018-07-23T09:15:52.984Z,8.93
2018-07-23T09:18:21.256Z,9.55
2018-07-23T09:20:49.591Z,9.45
2018-07-23T09:23:17.845Z,9.23
2018-07-23T09:25:46.599Z,8.45
2018-07-23T09:28:15.714Z,8.20
2018-07-23T09:30:49.522Z,8.45
2018-07-23T09:33:17.816Z,9.58
2018-07-23T09:35:46.079Z,8.78
2018-07-23T09:38:14.335Z,8.58
2018-07-23T09:40:42.863Z,9.03
2018-07-23T09:43:11.349Z,7.85
2018-07-23T09:45:39.661Z,8.20
2018-07-23T09:48:07.628Z,8.30
2018-07-23T09:50:35.987Z,8.48
2018-07-23T09:53:04.308Z,8.65
2018-07-23T09:55:32.857Z,7.95
2018-07-23T09:58:01.143Z,8.35
2018-07-23T10:00:34.897Z,7.80
2018-07-23T10:03:03.286Z,7.37
2018-07-23T10:05:32.295Z,8.08
2018-07-23T10:08:00.500Z,8.80
2018-07-23T10:10:28.789Z,10.80
2018-07-23T10:12:57.110Z,8.48
2018-07-23T10:15:25.395Z,7.92
2018-07-23T10:17:53.732Z,7.65
2018-07-23T10:20:22.085Z,7.92
2018-07-23T10:22:50.393Z,9.23
2018-07-23T10:25:18.851Z,10.38
2018-07-23T10:27:47.156Z,9.93
2018-07-23T10:30:15.472Z,9.50
2018-07-23T10:32:43.783Z,9.90
2018-07-23T10:35:12.084Z,9.08
2018-07-23T10:37:40.434Z,10.08
2018-07-23T10:40:08.752Z,9.80
2018-07-23T10:42:37.203Z,12.13
2018-07-23T10:45:05.944Z,9.63
2018-07-23T10:47:33.927Z,10.45
2018-07-23T10:50:02.262Z,10.58
2018-07-23T10:52:30.590Z,10.30
2018-07-23T10:54:58.880Z,9.18
2018-07-23T10:57:27.147Z,9.10
2018-07-23T10:59:55.459Z,7.75
2018-07-23T11:02:23.773Z,7.75
2018-07-23T11:04:52.153Z,7.05
2018-07-23T11:07:20.175Z,6.53
2018-07-23T11:09:48.568Z,5.55
2018-07-23T11:12:16.839Z,6.60
2018-07-23T11:14:45.093Z,6.28
2018-07-23T11:17:13.343Z,6.53
2018-07-23T11:19:41.628Z,5.35
2018-07-23T11:22:09.879Z,5.67
2018-07-23T11:24:37.902Z,5.37
2018-07-23T11:27:06.198Z,5.08
2018-07-23T11:29:34.515Z,4.97
2018-07-23T11:32:02.847Z,5.22
2018-07-23T11:34:31.069Z,5.00
2018-07-23T11:36:59.384Z,4.55
2018-07-23T11:39:27.710Z,4.45
2018-07-23T11:41:55.987Z,4.65
2018-07-23T11:44:24.024Z,5.80
2018-07-23T11:46:52.378Z,5.37
2018-07-23T11:49:23.720Z,6.28
2018-07-23T11:51:51.978Z,6.25
2018-07-23T11:54:20.268Z,5.70
2018-07-23T11:56:48.606Z,6.58
2018-07-23T11:59:16.861Z,5.97
2018-07-23T12:01:45.170Z,5.40
2018-07-23T12:04:13.266Z,4.50
2018-07-23T12:06:41.451Z,5.30
2018-07-23T12:09:11.155Z,5.03
2018-07-23T12:11:39.644Z,5.25
2018-07-23T12:14:08.216Z,5.40
2018-07-23T12:16:36.782Z,5.92
2018-07-23T12:19:05.096Z,6.75
2018-07-23T12:21:33.348Z,5.00
2018-07-23T12:24:02.062Z,4.97
2018-07-23T12:26:30.323Z,5.47
2018-07-23T12:28:58.569Z,5.05
2018-07-23T12:31:26.828Z,5.40
2018-07-23T12:33:55.085Z,5.45
2018-07-23T12:36:24.020Z,5.47
2018-07-23T12:38:52.597Z,5.10
2018-07-23T12:41:21.194Z,5.33
2018-07-23T12:43:49.814Z,5.78
2018-07-23T12:46:18.376Z,5.50
2018-07-23T12:48:46.696Z,5.22
2018-07-23T12:51:15.013Z,5.70
2018-07-23T12:53:43.232Z,6.20
2018-07-23T12:56:11.498Z,5.87
2018-07-23T12:58:39.787Z,6.28
2018-07-23T13:01:08.728Z,5.40
2018-07-23T13:03:36.982Z,5.60
2018-07-23T13:06:05.280Z,5.78
2018-07-23T13:08:33.600Z,6.22
2018-07-23T13:11:01.923Z,6.58
2018-07-23T13:13:30.188Z,5.87
2018-07-23T13:15:58.203Z,5.60
2018-07-23T13:18:26.579Z,5.78
2018-07-23T13:20:54.864Z,5.90
2018-07-23T13:23:23.258Z,5.92
2018-07-23T13:25:51.624Z,6.12
2018-07-23T13:28:19.837Z,6.22
2018-07-23T13:30:48.139Z,6.53
2018-07-23T13:33:16.507Z,6.72
2018-07-23T13:35:44.755Z,6.60
2018-07-23T13:38:13.121Z,6.90
2018-07-23T13:40:41.737Z,6.67
2018-07-23T13:43:10.153Z,5.75
2018-07-23T13:45:38.471Z,4.65
2018-07-23T13:48:06.973Z,6.17
2018-07-23T13:50:35.466Z,5.60
2018-07-23T13:53:03.510Z,4.80
2018-07-23T13:55:31.829Z,4.65
2018-07-23T13:58:00.107Z,4.12
2018-07-23T14:00:28.401Z,4.85
2018-07-23T14:02:56.745Z,5.05
2018-07-23T14:05:25.017Z,5.80
2018-07-23T14:07:53.257Z,6.85
2018-07-23T14:10:21.546Z,7.40
2018-07-23T14:12:49.807Z,6.87
2018-07-23T14:15:18.067Z,7.15
2018-07-23T14:17:46.436Z,6.67
2018-07-23T14:20:14.679Z,6.37
2018-07-23T14:22:42.664Z,7.37
2018-07-23T14:25:10.919Z,7.28
2018-07-23T14:27:39.211Z,6.22
2018-07-23T14:30:07.503Z,6.60
2018-07-23T14:32:35.756Z,6.53
2018-07-23T14:35:04.083Z,6.08
2018-07-23T14:37:32.672Z,6.45
2018-07-23T14:40:01.041Z,6.10
2018-07-23T14:42:29.267Z,6.45
2018-07-23T14:44:57.612Z,6.95
2018-07-23T14:47:25.895Z,7.37
2018-07-23T14:49:54.144Z,7.45
2018-07-23T14:52:22.439Z,7.25
2018-07-23T14:54:50.690Z,7.00
2018-07-23T14:57:19.079Z,8.18
2018-07-23T14:59:47.311Z,6.37
2018-07-23T15:02:15.549Z,6.12
2018-07-23T15:04:43.825Z,6.97
2018-07-23T15:07:12.078Z,6.53
2018-07-23T15:09:40.481Z,6.28
2018-07-23T15:12:08.798Z,6.17
2018-07-23T15:14:37.015Z,6.22
2018-07-23T15:17:05.253Z,6.25
2018-07-23T15:19:33.557Z,6.28
2018-07-23T15:22:02.627Z,5.80
2018-07-23T15:24:30.828Z,6.35
2018-07-23T15:26:59.116Z,5.85
2018-07-23T15:29:27.391Z,6.00
2018-07-23T15:31:55.668Z,6.05
2018-07-23T15:34:24.015Z,5.70
2018-07-23T15:36:52.277Z,6.12
2018-07-23T15:39:20.608Z,5.53
2018-07-23T15:41:48.872Z,5.58
2018-07-23T15:44:17.195Z,6.08
2018-07-23T15:46:45.103Z,6.20
2018-07-23T15:49:13.361Z,5.92
2018-07-23T15:51:41.626Z,5.55
2018-07-23T15:54:09.869Z,5.83
2018-07-23T15:56:38.140Z,5.70
2018-07-23T15:59:06.422Z,5.50
2018-07-23T16:01:34.591Z,5.83
2018-07-23T16:04:02.811Z,5.67
2018-07-23T16:06:31.040Z,5.33
2018-07-23T16:08:59.282Z,4.95
2018-07-23T16:11:27.551Z,4.83
2018-07-23T16:13:55.783Z,5.05
2018-07-23T16:16:23.837Z,5.22
2018-07-23T16:18:52.193Z,5.70
2018-07-23T16:21:21.271Z,5.30
2018-07-23T16:23:49.537Z,5.12
2018-07-23T16:26:17.830Z,5.33
2018-07-23T16:28:46.048Z,5.60
2018-07-23T16:31:14.302Z,4.92
2018-07-23T16:33:42.542Z,5.03
2018-07-23T16:36:10.780Z,5.37
2018-07-23T16:38:38.746Z,5.03
2018-07-23T16:41:06.757Z,5.78
2018-07-23T16:43:34.994Z,5.10
2018-07-23T16:46:03.254Z,13.30
2018-07-23T16:48:31.513Z,5.28
2018-07-23T16:50:59.721Z,5.58
2018-07-23T16:53:27.991Z,4.75
2018-07-23T16:55:56.215Z,4.50
2018-07-23T16:58:24.476Z,4.78
2018-07-23T17:00:52.710Z,4.70
2018-07-23T17:03:21.008Z,5.15
2018-07-23T17:05:49.254Z,4.95
2018-07-23T17:08:17.967Z,4.85
2018-07-23T17:10:46.220Z,4.85
2018-07-23T17:13:14.575Z,5.12
2018-07-23T17:15:42.838Z,4.85
2018-07-23T17:18:11.544Z,4.70
2018-07-23T17:20:39.619Z,4.97
2018-07-23T17:23:07.851Z,5.10
2018-07-23T17:25:36.067Z,5.20
2018-07-23T17:28:04.336Z,4.85
2018-07-23T17:30:32.555Z,4.75
2018-07-23T17:33:00.792Z,4.25
2018-07-23T17:35:29.031Z,5.53
2018-07-23T17:37:57.306Z,5.08
2018-07-23T17:40:25.583Z,4.72
2018-07-23T17:42:53.798Z,5.35
2018-07-23T17:45:22.121Z,5.12
2018-07-23T17:47:50.394Z,5.15
2018-07-23T17:50:18.659Z,8.08
2018-07-23T17:52:46.916Z,6.10
2018-07-23T17:55:15.173Z,4.95
2018-07-23T17:57:43.450Z,4.97
2018-07-23T18:00:11.763Z,5.17
2018-07-23T18:02:39.804Z,5.20
2018-07-23T18:05:11.491Z,5.55
2018-07-23T18:07:39.777Z,5.12
2018-07-23T18:10:07.979Z,5.12
2018-07-23T18:12:36.219Z,5.30
2018-07-23T18:15:04.747Z,6.03
2018-07-23T18:17:33.001Z,5.55
2018-07-23T18:20:01.317Z,5.55
2018-07-23T18:22:29.667Z,6.33
2018-07-23T18:24:57.910Z,5.75
2018-07-23T18:27:26.214Z,5.92
2018-07-23T18:29:54.459Z,6.05
2018-07-23T18:32:22.798Z,5.45
2018-07-23T18:34:51.031Z,5.12
2018-07-23T18:37:19.312Z,5.67
2018-07-23T18:39:47.555Z,5.40
2018-07-23T18:42:15.812Z,5.90
2018-07-23T18:44:44.055Z,5.10
2018-07-23T18:47:12.318Z,5.45
2018-07-23T18:49:53.604Z,5.70
2018-07-23T18:52:22.465Z,5.35
2018-07-23T18:54:52.084Z,5.50
2018-07-23T18:57:20.312Z,5.80
2018-07-23T18:59:48.637Z,5.22
2018-07-23T19:02:18.046Z,5.58
2018-07-23T19:04:46.324Z,5.08
2018-07-23T19:07:14.675Z,5.83
2018-07-23T19:09:43.281Z,5.42
2018-07-23T19:12:12.081Z,5.50
2018-07-23T19:14:40.496Z,5.70
2018-07-23T19:17:11.325Z,5.85
2018-07-23T19:19:39.599Z,5.42
2018-07-23T19:22:07.970Z,5.33
2018-07-23T19:24:36.217Z,6.35
2018-07-23T19:27:04.696Z,6.37
2018-07-23T19:29:33.025Z,5.95
2018-07-23T19:32:01.326Z,6.47
2018-07-23T19:34:29.316Z,6.40
2018-07-23T19:36:57.591Z,6.10
2018-07-23T19:39:25.790Z,5.92
2018-07-23T19:41:54.173Z,5.75
2018-07-23T19:44:22.508Z,5.75
2018-07-23T19:46:50.766Z,6.08
2018-07-23T19:49:19.157Z,6.55
2018-07-23T19:51:47.459Z,6.35
2018-07-23T19:54:15.737Z,5.72
2018-07-23T19:56:44.026Z,6.08
2018-07-23T19:59:12.313Z,6.62
2018-07-23T20:01:40.626Z,7.10
2018-07-23T20:04:08.627Z,7.60
2018-07-23T20:06:36.901Z,8.50
2018-07-23T20:09:08.048Z,7.22
2018-07-23T20:11:36.370Z,7.92
2018-07-23T20:14:04.610Z,7.45
2018-07-23T20:16:33.670Z,7.65
2018-07-23T20:19:01.661Z,7.95
2018-07-23T20:21:30.021Z,7.53
2018-07-23T20:23:58.289Z,7.30
2018-07-23T20:26:26.520Z,6.90
2018-07-23T20:28:54.798Z,6.67
2018-07-23T20:31:23.154Z,7.20
2018-07-23T20:33:51.481Z,6.87
2018-07-23T20:36:19.812Z,7.75
2018-07-23T20:38:48.139Z,8.33
2018-07-23T20:41:16.470Z,9.03
2018-07-23T20:43:44.756Z,9.48
2018-07-23T20:46:13.174Z,9.33
2018-07-23T20:48:41.354Z,9.15
2018-07-23T20:51:09.565Z,9.45
2018-07-23T20:53:37.859Z,8.88
2018-07-23T20:56:06.126Z,8.58
2018-07-23T20:58:34.418Z,8.90
2018-07-23T21:01:02.669Z,8.55
2018-07-23T21:03:31.008Z,8.80
2018-07-23T21:05:59.251Z,8.98
2018-07-23T21:08:27.602Z,9.13
2018-07-23T21:10:55.852Z,9.00
2018-07-23T21:13:24.188Z,9.65
2018-07-23T21:15:52.447Z,9.15
2018-07-23T21:18:20.765Z,8.80
2018-07-23T21:20:48.992Z,9.30
2018-07-23T21:23:17.199Z,9.13
2018-07-23T21:25:45.471Z,8.98
2018-07-23T21:28:13.758Z,9.30
2018-07-23T21:30:42.011Z,9.63
2018-07-23T21:33:10.274Z,8.90
2018-07-23T21:35:38.521Z,8.15
2018-07-23T21:38:06.798Z,9.38
2018-07-23T21:40:35.047Z,8.73
2018-07-23T21:43:03.335Z,8.48
2018-07-23T21:45:31.722Z,8.43
2018-07-23T21:48:00.029Z,8.70
2018-07-23T21:50:28.319Z,8.60
2018-07-23T21:52:56.639Z,9.13
2018-07-23T21:55:24.881Z,8.63
2018-07-23T21:57:53.148Z,9.15
2018-07-23T22:00:21.384Z,9.23
2018-07-23T22:02:49.642Z,9.55
2018-07-23T22:05:17.876Z,9.20
2018-07-23T22:07:46.160Z,8.90
2018-07-23T22:10:14.499Z,8.55
2018-07-23T22:12:42.755Z,8.78
2018-07-23T22:15:11.576Z,9.03
2018-07-23T22:17:39.857Z,9.13
2018-07-23T22:20:08.806Z,9.08
2018-07-23T22:22:37.078Z,9.05
2018-07-23T22:25:05.419Z,10.78
2018-07-23T22:27:33.674Z,10.23
2018-07-23T22:30:01.992Z,10.70
2018-07-23T22:32:30.276Z,9.45
2018-07-23T22:34:58.541Z,9.90
2018-07-23T22:37:26.803Z,9.85
2018-07-23T22:39:55.075Z,9.28
2018-07-23T22:42:24.274Z,9.40
2018-07-23T22:44:52.592Z,9.58
2018-07-23T22:47:20.898Z,9.73
2018-07-23T22:49:49.199Z,9.30
2018-07-23T22:52:17.498Z,9.53
2018-07-23T22:54:45.727Z,9.65
2018-07-23T22:57:14.049Z,9.33
2018-07-23T22:59:42.394Z,10.03
2018-07-23T23:02:10.726Z,10.82
2018-07-23T23:04:38.801Z,9.13
2018-07-23T23:07:07.094Z,9.00
2018-07-23T23:09:35.487Z,9.68
2018-07-23T23:12:03.899Z,9.95
2018-07-23T23:14:32.346Z,9.90
2018-07-23T23:17:00.578Z,9.90
2018-07-23T23:19:28.880Z,9.43
2018-07-23T23:21:57.100Z,10.35
2018-07-23T23:24:25.383Z,9.30
2018-07-23T23:26:53.902Z,8.90
2018-07-23T23:29:21.920Z,9.08
2018-07-23T23:31:50.198Z,9.10
2018-07-23T23:34:18.459Z,9.63
2018-07-23T23:36:46.756Z,9.23
2018-07-23T23:39:14.979Z,9.60
2018-07-23T23:41:43.273Z,8.73
2018-07-23T23:44:11.535Z,9.08
2018-07-23T23:46:39.834Z,8.85
2018-07-23T23:49:08.053Z,9.20
2018-07-23T23:51:36.343Z,7.85
2018-07-23T23:54:04.598Z,8.38
2018-07-23T23:56:32.836Z,9.23
2018-07-23T23:59:01.141Z,7.92
